createdAt,value
2022-07-26T00:01:23.615Z,6.73
2022-07-26T00:03:56.382Z,7.33
2022-07-26T00:06:25.591Z,7.83
2022-07-26T00:08:56.140Z,6.80
2022-07-26T00:11:25.834Z,7.50
2022-07-26T00:13:54.712Z,6.20
2022-07-26T00:16:23.502Z,8.00
2022-07-26T00:18:52.843Z,7.10
2022-07-26T00:21:21.298Z,6.77
2022-07-26T00:23:49.585Z,7.07
2022-07-26T00:26:19.379Z,6.80
2022-07-26T00:28:47.659Z,6.70
2022-07-26T00:31:16.423Z,5.97
2022-07-26T00:33:44.755Z,6.50
2022-07-26T00:36:13.195Z,7.53
2022-07-26T00:38:43.577Z,6.03
2022-07-26T00:41:11.891Z,6.77
2022-07-26T00:43:54.915Z,6.40
2022-07-26T00:46:23.889Z,7.17
2022-07-26T00:48:52.296Z,7.87
2022-07-26T00:51:21.890Z,6.80
2022-07-26T00:53:50.704Z,7.10
2022-07-26T00:56:19.530Z,6.23
2022-07-26T00:58:49.235Z,7.10
2022-07-26T01:01:17.590Z,7.37
2022-07-26T01:03:46.554Z,6.70
2022-07-26T01:06:15.021Z,6.77
2022-07-26T01:08:43.968Z,6.20
2022-07-26T01:11:12.286Z,6.47
2022-07-26T01:13:48.872Z,5.97
2022-07-26T01:16:17.423Z,5.40
2022-07-26T01:18:45.915Z,4.73
2022-07-26T01:21:15.874Z,5.03
2022-07-26T01:23:45.843Z,4.67
2022-07-26T01:26:14.288Z,4.90
2022-07-26T01:28:44.931Z,4.63
2022-07-26T01:31:13.421Z,4.97
2022-07-26T01:33:41.917Z,4.73
2022-07-26T01:36:12.434Z,4.03
2022-07-26T01:38:41.164Z,4.40
2022-07-26T01:41:11.059Z,4.43
2022-07-26T01:43:39.776Z,4.07
2022-07-26T01:46:09.953Z,4.10
2022-07-26T01:48:38.613Z,4.33
2022-07-26T01:51:07.173Z,3.90
2022-07-26T01:53:35.837Z,3.73
2022-07-26T01:56:04.162Z,3.50
2022-07-26T01:58:33.927Z,3.60
2022-07-26T02:01:02.183Z,3.60
2022-07-26T02:03:30.763Z,4.00
2022-07-26T02:05:59.068Z,3.70
2022-07-26T02:08:28.056Z,3.43
2022-07-26T02:11:03.663Z,3.43
2022-07-26T02:13:35.812Z,3.60
2022-07-26T02:16:05.912Z,3.30
2022-07-26T02:18:35.379Z,3.37
2022-07-26T02:21:04.099Z,3.03
2022-07-26T02:23:32.967Z,3.07
2022-07-26T02:26:01.862Z,3.13
2022-07-26T02:28:30.263Z,3.20
2022-07-26T02:30:59.913Z,3.30
2022-07-26T02:33:28.596Z,3.37
2022-07-26T02:35:56.918Z,3.37
2022-07-26T02:38:25.494Z,3.07
2022-07-26T02:40:53.927Z,3.50
2022-07-26T02:43:22.485Z,3.40
2022-07-26T02:46:01.529Z,3.50
2022-07-26T02:48:33.484Z,3.50
2022-07-26T02:51:02.210Z,3.30
2022-07-26T02:53:30.583Z,3.50
2022-07-26T02:55:59.076Z,3.30
2022-07-26T02:58:28.232Z,3.07
2022-07-26T03:00:56.605Z,3.50
2022-07-26T03:03:25.827Z,3.07
2022-07-26T03:05:55.558Z,3.20
2022-07-26T03:08:24.056Z,3.30
2022-07-26T03:10:52.395Z,3.10
2022-07-26T03:13:20.749Z,3.23
2022-07-26T03:15:49.475Z,2.73
2022-07-26T03:18:18.114Z,3.20
2022-07-26T03:20:46.621Z,3.10
2022-07-26T03:23:16.700Z,3.03
2022-07-26T03:25:45.092Z,2.83
2022-07-26T03:28:18.925Z,2.97
2022-07-26T03:30:48.346Z,3.20
2022-07-26T03:33:16.893Z,3.07
2022-07-26T03:35:45.242Z,3.10
2022-07-26T03:38:13.736Z,2.83
2022-07-26T03:40:43.505Z,2.70
2022-07-26T03:43:12.147Z,3.10
2022-07-26T03:45:40.384Z,3.00
2022-07-26T03:48:08.993Z,2.80
2022-07-26T03:50:37.658Z,3.17
2022-07-26T03:53:06.496Z,2.90
2022-07-26T03:55:52.543Z,2.90
2022-07-26T03:58:23.300Z,2.90
2022-07-26T04:00:51.611Z,3.60
2022-07-26T04:03:20.912Z,3.00
2022-07-26T04:05:49.305Z,3.30
2022-07-26T04:08:18.095Z,3.17
2022-07-26T04:10:47.752Z,3.10
2022-07-26T04:13:16.106Z,3.13
2022-07-26T04:15:45.892Z,3.30
2022-07-26T04:18:16.210Z,2.90
2022-07-26T04:20:44.966Z,3.37
2022-07-26T04:23:13.574Z,3.50
2022-07-26T04:25:42.340Z,3.10
2022-07-26T04:28:11.441Z,3.17
2022-07-26T04:30:40.300Z,3.33
2022-07-26T04:33:10.541Z,3.00
2022-07-26T04:35:39.304Z,3.60
2022-07-26T04:38:08.022Z,3.10
2022-07-26T04:40:41.054Z,3.00
2022-07-26T04:43:15.968Z,3.20
2022-07-26T04:45:45.208Z,2.90
2022-07-26T04:48:16.079Z,3.13
2022-07-26T04:50:45.166Z,3.20
2022-07-26T04:53:13.732Z,3.23
2022-07-26T04:55:42.760Z,3.13
2022-07-26T04:58:12.153Z,3.13
2022-07-26T05:01:08.356Z,3.33
2022-07-26T05:03:30.777Z,3.70
2022-07-26T05:05:59.322Z,3.07
2022-07-26T05:08:27.824Z,3.10
2022-07-26T05:10:56.493Z,3.53
2022-07-26T05:13:30.398Z,3.60
2022-07-26T05:16:00.436Z,3.30
2022-07-26T05:18:45.573Z,3.43
2022-07-26T05:21:18.249Z,2.80
2022-07-26T05:23:47.099Z,3.40
2022-07-26T05:26:16.004Z,3.00
2022-07-26T05:28:44.881Z,3.33
2022-07-26T05:31:13.423Z,2.90
2022-07-26T05:36:24.990Z,3.17
2022-07-26T05:38:53.381Z,3.40
2022-07-26T05:41:21.762Z,3.57
2022-07-26T05:43:50.306Z,2.50
2022-07-26T05:46:18.836Z,2.97
2022-07-26T05:48:49.190Z,3.10
2022-07-26T05:51:17.317Z,3.20
2022-07-26T05:53:45.536Z,2.80
2022-07-26T05:56:13.941Z,2.73
2022-07-26T05:58:42.154Z,3.13
2022-07-26T06:01:10.415Z,3.10
2022-07-26T06:03:38.731Z,2.80
2022-07-26T06:06:09.422Z,2.87
2022-07-26T06:08:38.027Z,2.40
2022-07-26T06:11:07.246Z,2.77
2022-07-26T06:13:35.485Z,2.50
2022-07-26T06:16:03.844Z,2.33
2022-07-26T06:18:31.970Z,2.37
2022-07-26T06:21:02.519Z,2.50
2022-07-26T06:23:34.804Z,2.40
2022-07-26T06:26:05.378Z,2.50
2022-07-26T06:28:34.017Z,2.83
2022-07-26T06:31:02.501Z,2.67
2022-07-26T06:33:30.962Z,2.20
2022-07-26T06:35:59.452Z,2.63
2022-07-26T06:38:27.877Z,2.70
2022-07-26T06:40:57.484Z,2.50
2022-07-26T06:43:25.677Z,2.07
2022-07-26T06:45:54.406Z,2.20
2022-07-26T06:48:24.280Z,2.17
2022-07-26T06:50:53.146Z,2.30
2022-07-26T06:53:21.370Z,2.17
2022-07-26T06:55:49.757Z,1.90
2022-07-26T06:58:21.109Z,2.00
2022-07-26T07:00:49.479Z,2.23
2022-07-26T07:03:17.817Z,2.33
2022-07-26T07:05:49.954Z,2.10
2022-07-26T07:08:19.538Z,2.17
2022-07-26T07:10:48.420Z,2.23
2022-07-26T07:13:21.036Z,2.23
2022-07-26T07:15:49.625Z,1.93
2022-07-26T07:18:18.690Z,1.97
2022-07-26T07:20:46.966Z,1.90
2022-07-26T07:23:15.388Z,1.63
2022-07-26T07:25:44.876Z,1.87
2022-07-26T07:28:13.391Z,2.00
2022-07-26T07:30:43.122Z,2.00
2022-07-26T07:33:22.392Z,1.60
2022-07-26T07:35:52.059Z,2.13
2022-07-26T07:38:20.368Z,1.67
2022-07-26T07:40:51.060Z,2.00
2022-07-26T07:43:19.524Z,1.77
2022-07-26T07:45:49.250Z,1.67
2022-07-26T07:48:17.593Z,2.00
2022-07-26T07:50:46.034Z,1.70
2022-07-26T07:53:14.239Z,1.83
2022-07-26T07:55:43.952Z,2.00
2022-07-26T07:58:17.317Z,1.80
2022-07-26T08:00:50.088Z,1.93
2022-07-26T08:03:19.159Z,1.70
2022-07-26T08:05:49.581Z,1.87
2022-07-26T08:08:22.614Z,1.67
2022-07-26T08:10:52.964Z,1.60
2022-07-26T08:13:22.545Z,1.57
2022-07-26T08:15:52.716Z,1.80
2022-07-26T08:18:22.441Z,2.00
2022-07-26T08:20:52.850Z,1.80
2022-07-26T08:23:21.764Z,1.97
2022-07-26T08:25:57.038Z,2.00
2022-07-26T08:28:46.884Z,1.60
2022-07-26T08:31:19.970Z,1.70
2022-07-26T08:33:48.995Z,2.00
2022-07-26T08:36:18.439Z,1.70
2022-07-26T08:38:47.685Z,1.70
2022-07-26T08:41:16.872Z,1.30
2022-07-26T08:43:51.796Z,1.60
2022-07-26T08:46:27.478Z,1.63
2022-07-26T08:49:04.988Z,1.60
2022-07-26T08:51:33.908Z,1.60
2022-07-26T08:54:05.672Z,1.50
2022-07-26T08:56:36.340Z,1.60
2022-07-26T08:59:06.740Z,1.60
2022-07-26T09:01:36.993Z,1.50
2022-07-26T09:04:41.413Z,1.73
2022-07-26T09:07:10.558Z,1.40
2022-07-26T09:09:40.831Z,1.50
2022-07-26T09:12:17.784Z,1.70
2022-07-26T09:14:47.584Z,1.40
2022-07-26T09:17:19.737Z,1.53
2022-07-26T09:20:04.094Z,1.30
2022-07-26T09:22:32.637Z,1.30
2022-07-26T09:25:00.900Z,1.60
2022-07-26T09:27:36.705Z,1.73
2022-07-26T09:30:09.880Z,1.20
2022-07-26T09:32:39.696Z,1.20
2022-07-26T09:35:44.647Z,1.13
2022-07-26T09:38:14.300Z,1.60
2022-07-26T09:40:46.806Z,1.17
2022-07-26T09:43:23.869Z,1.00
2022-07-26T09:46:14.377Z,1.20
2022-07-26T09:51:39.999Z,1.60
2022-07-26T09:54:09.845Z,1.20
2022-07-26T09:56:46.286Z,1.00
2022-07-26T09:59:16.458Z,1.00
2022-07-26T10:01:44.883Z,1.00
2022-07-26T10:04:15.433Z,0.87
2022-07-26T10:06:44.267Z,1.00
2022-07-26T10:09:13.646Z,1.23
2022-07-26T10:11:46.182Z,1.07
2022-07-26T10:14:36.774Z,0.73
2022-07-26T10:17:46.956Z,1.30
2022-07-26T10:20:45.636Z,1.03
2022-07-26T10:23:43.035Z,1.40
2022-07-26T10:26:35.081Z,1.10
2022-07-26T10:29:28.617Z,1.20
2022-07-26T10:32:20.642Z,1.40
2022-07-26T10:34:51.210Z,1.20
2022-07-26T10:37:30.762Z,1.03
2022-07-26T10:40:20.329Z,0.90
2022-07-26T10:42:48.647Z,0.90
2022-07-26T10:45:23.450Z,1.03
2022-07-26T10:48:14.514Z,1.23
2022-07-26T10:50:44.418Z,0.83
2022-07-26T10:53:19.636Z,1.00
2022-07-26T10:55:53.263Z,0.90
2022-07-26T10:58:22.912Z,1.10
2022-07-26T11:00:59.403Z,1.00
2022-07-26T11:03:38.827Z,1.37
2022-07-26T11:06:13.008Z,1.10
2022-07-26T11:08:47.886Z,1.33
2022-07-26T11:11:29.628Z,1.00
2022-07-26T11:14:09.599Z,1.10
2022-07-26T11:16:39.280Z,0.90
2022-07-26T11:19:16.705Z,1.00
2022-07-26T11:21:46.281Z,1.20
2022-07-26T11:24:16.392Z,1.03
2022-07-26T11:26:46.463Z,1.00
2022-07-26T11:29:17.256Z,1.00
2022-07-26T11:31:51.005Z,1.10
2022-07-26T11:34:29.778Z,1.00
2022-07-26T11:37:00.431Z,1.10
2022-07-26T11:39:33.914Z,1.30
2022-07-26T11:42:04.099Z,0.80
2022-07-26T11:44:32.892Z,1.10
2022-07-26T11:47:11.059Z,0.90
2022-07-26T11:52:31.174Z,0.97
2022-07-26T11:55:01.252Z,1.10
2022-07-26T11:57:31.573Z,1.20
2022-07-26T12:00:01.511Z,1.20
2022-07-26T12:02:31.336Z,1.43
2022-07-26T12:05:19.160Z,1.00
2022-07-26T12:07:57.002Z,1.17
2022-07-26T12:10:27.202Z,1.03
2022-07-26T12:13:09.302Z,1.00
2022-07-26T12:15:48.244Z,1.20
2022-07-26T12:18:24.732Z,1.10
2022-07-26T12:21:06.108Z,1.00
2022-07-26T12:23:42.853Z,1.10
2022-07-26T12:26:31.265Z,1.20
2022-07-26T12:29:20.526Z,0.93
2022-07-26T12:32:02.695Z,0.80
2022-07-26T12:34:33.199Z,0.87
2022-07-26T12:37:18.698Z,1.00
2022-07-26T12:40:05.623Z,0.80
2022-07-26T12:42:38.687Z,0.90
2022-07-26T12:45:09.271Z,1.10
2022-07-26T12:47:38.911Z,1.03
2022-07-26T12:50:09.039Z,1.10
2022-07-26T12:52:39.700Z,1.00
2022-07-26T12:55:11.523Z,2.70
2022-07-26T12:57:47.823Z,2.57
2022-07-26T13:00:19.474Z,2.67
2022-07-26T13:02:47.992Z,2.53
2022-07-26T13:05:16.656Z,2.03
2022-07-26T13:07:45.606Z,1.97
2022-07-26T13:10:32.630Z,1.70
2022-07-26T13:13:07.070Z,1.40
2022-07-26T13:15:37.528Z,1.40
2022-07-26T13:18:09.112Z,1.27
2022-07-26T13:20:39.144Z,1.30
2022-07-26T13:23:13.713Z,1.40
2022-07-26T13:25:44.491Z,1.40
2022-07-26T13:28:15.754Z,1.13
2022-07-26T13:30:45.214Z,1.40
2022-07-26T13:33:13.799Z,1.40
2022-07-26T13:35:43.108Z,1.37
2022-07-26T13:38:11.639Z,1.37
2022-07-26T13:40:40.462Z,1.20
2022-07-26T13:43:08.953Z,1.23
2022-07-26T13:45:39.531Z,1.50
2022-07-26T13:48:08.715Z,1.20
2022-07-26T13:50:37.027Z,1.37
2022-07-26T13:53:05.549Z,1.40
2022-07-26T13:55:34.254Z,1.40
2022-07-26T13:58:07.721Z,1.30
2022-07-26T14:00:41.052Z,1.40
2022-07-26T14:03:09.865Z,1.43
2022-07-26T14:05:38.152Z,1.20
2022-07-26T14:08:06.994Z,1.50
2022-07-26T14:10:38.190Z,1.60
2022-07-26T14:13:07.246Z,1.37
2022-07-26T14:15:36.296Z,1.20
2022-07-26T14:18:06.462Z,1.10
2022-07-26T14:20:35.099Z,1.33
2022-07-26T14:23:04.163Z,1.20
2022-07-26T14:25:33.307Z,1.20
2022-07-26T14:28:01.975Z,1.40
2022-07-26T14:30:30.196Z,1.20
2022-07-26T14:32:58.947Z,1.30
2022-07-26T14:35:29.022Z,1.33
2022-07-26T14:37:58.340Z,1.20
2022-07-26T14:40:30.251Z,1.00
2022-07-26T14:43:02.966Z,1.43
2022-07-26T14:45:32.522Z,1.10
2022-07-26T14:48:01.462Z,1.37
2022-07-26T14:50:47.045Z,1.10
2022-07-26T14:53:20.967Z,1.40
2022-07-26T14:55:50.255Z,1.17
2022-07-26T14:58:19.700Z,1.37
2022-07-26T15:00:49.706Z,1.50
2022-07-26T15:03:18.998Z,1.40
2022-07-26T15:05:48.937Z,1.37
2022-07-26T15:08:18.123Z,1.30
2022-07-26T15:10:46.725Z,1.33
2022-07-26T15:13:15.362Z,1.60
2022-07-26T15:15:44.733Z,1.50
2022-07-26T15:18:13.755Z,1.60
2022-07-26T15:20:43.194Z,1.50
2022-07-26T15:23:13.480Z,1.40
2022-07-26T15:25:42.321Z,1.37
2022-07-26T15:28:11.248Z,1.60
2022-07-26T15:30:40.932Z,1.50
2022-07-26T15:33:10.153Z,1.40
2022-07-26T15:35:40.732Z,1.30
2022-07-26T15:38:09.728Z,1.50
2022-07-26T15:40:40.656Z,1.50
2022-07-26T15:43:09.515Z,1.60
2022-07-26T15:45:41.419Z,1.40
2022-07-26T15:48:16.990Z,1.50
2022-07-26T15:50:49.957Z,1.60
2022-07-26T15:53:18.717Z,1.50
2022-07-26T15:55:48.665Z,1.70
2022-07-26T15:58:17.288Z,1.40
2022-07-26T16:00:45.888Z,1.40
2022-07-26T16:03:16.072Z,1.47
2022-07-26T16:05:47.755Z,1.50
2022-07-26T16:08:16.854Z,1.53
2022-07-26T16:10:48.301Z,1.43
2022-07-26T16:13:17.844Z,1.60
2022-07-26T16:15:48.122Z,1.67
2022-07-26T16:18:17.851Z,1.40
2022-07-26T16:20:46.809Z,1.60
2022-07-26T16:23:15.450Z,1.80
2022-07-26T16:25:44.333Z,1.60
2022-07-26T16:28:14.310Z,1.70
2022-07-26T16:30:43.000Z,1.43
2022-07-26T16:33:12.116Z,1.97
2022-07-26T16:35:41.846Z,1.70
2022-07-26T16:38:12.711Z,1.70
2022-07-26T16:40:41.387Z,2.07
2022-07-26T16:43:12.193Z,2.30
2022-07-26T16:45:42.309Z,2.63
2022-07-26T16:48:11.204Z,2.17
2022-07-26T16:50:40.052Z,2.60
2022-07-26T16:53:13.191Z,2.77
2022-07-26T16:55:44.878Z,2.43
2022-07-26T16:58:13.664Z,2.77
2022-07-26T17:00:44.073Z,2.23
2022-07-26T17:03:15.893Z,2.30
2022-07-26T17:05:46.366Z,2.43
2022-07-26T17:08:15.006Z,2.43
2022-07-26T17:10:43.998Z,2.70
2022-07-26T17:13:12.858Z,2.10
2022-07-26T17:15:43.436Z,2.70
2022-07-26T17:18:12.372Z,2.60
2022-07-26T17:20:41.219Z,2.30
2022-07-26T17:23:10.615Z,2.50
2022-07-26T17:25:39.054Z,2.70
2022-07-26T17:28:08.090Z,2.80
2022-07-26T17:30:36.958Z,2.83
2022-07-26T17:33:07.386Z,2.73
2022-07-26T17:35:36.041Z,2.40
2022-07-26T17:38:05.062Z,2.20
2022-07-26T17:40:33.932Z,2.33
2022-07-26T17:43:02.308Z,2.47
2022-07-26T17:45:30.878Z,2.30
2022-07-26T17:48:03.085Z,2.40
2022-07-26T17:50:37.661Z,2.37
2022-07-26T17:53:06.722Z,2.30
2022-07-26T17:55:35.640Z,2.40
2022-07-26T17:58:04.048Z,2.30
2022-07-26T18:00:32.548Z,2.17
2022-07-26T18:03:00.901Z,2.37
2022-07-26T18:05:34.175Z,2.10
2022-07-26T18:08:07.202Z,2.30
2022-07-26T18:10:36.165Z,2.50
2022-07-26T18:13:05.619Z,2.20
2022-07-26T18:15:35.436Z,2.83
2022-07-26T18:18:04.229Z,1.93
2022-07-26T18:20:33.361Z,2.50
2022-07-26T18:23:02.790Z,2.20
2022-07-26T18:25:34.108Z,2.40
2022-07-26T18:28:06.870Z,2.13
2022-07-26T18:30:35.868Z,2.40
2022-07-26T18:33:05.582Z,2.30
2022-07-26T18:35:34.341Z,2.07
2022-07-26T18:38:06.744Z,2.20
2022-07-26T18:40:37.659Z,2.00
2022-07-26T18:43:06.286Z,1.93
2022-07-26T18:45:34.926Z,2.60
2022-07-26T18:48:03.214Z,2.30
2022-07-26T18:50:32.288Z,2.27
2022-07-26T18:53:01.211Z,2.03
2022-07-26T18:55:29.881Z,2.20
2022-07-26T18:58:06.263Z,2.17
2022-07-26T19:00:35.562Z,2.20
2022-07-26T19:03:05.488Z,2.50
2022-07-26T19:05:35.534Z,2.13
2022-07-26T19:08:05.148Z,2.17
2022-07-26T19:10:33.714Z,2.10
2022-07-26T19:13:03.421Z,2.23
2022-07-26T19:15:32.647Z,2.37
2022-07-26T19:18:11.093Z,2.13
2022-07-26T19:20:40.081Z,2.40
2022-07-26T19:23:10.388Z,2.20
2022-07-26T19:25:42.971Z,2.03
2022-07-26T19:28:12.970Z,2.00
2022-07-26T19:30:41.475Z,2.20
2022-07-26T19:33:10.068Z,2.13
2022-07-26T19:35:39.074Z,2.10
2022-07-26T19:38:07.453Z,2.20
2022-07-26T19:40:35.965Z,2.00
2022-07-26T19:43:06.127Z,1.80
2022-07-26T19:45:35.930Z,2.10
2022-07-26T19:48:04.607Z,2.20
2022-07-26T19:50:33.471Z,2.17
2022-07-26T19:53:03.777Z,2.40
2022-07-26T19:55:32.310Z,2.00
2022-07-26T19:58:00.827Z,2.20
2022-07-26T20:00:30.198Z,2.10
2022-07-26T20:03:01.572Z,2.20
2022-07-26T20:05:30.018Z,2.53
2022-07-26T20:07:59.779Z,2.03
2022-07-26T20:10:32.000Z,2.00
2022-07-26T20:13:00.843Z,1.90
2022-07-26T20:15:29.553Z,2.40
2022-07-26T20:17:57.835Z,2.27
2022-07-26T20:20:27.747Z,2.03
2022-07-26T20:22:57.697Z,1.73
2022-07-26T20:25:26.386Z,1.90
2022-07-26T20:27:54.888Z,1.80
2022-07-26T20:30:23.357Z,1.70
2022-07-26T20:32:51.921Z,1.80
2022-07-26T20:35:20.454Z,2.10
2022-07-26T20:37:50.244Z,1.67
2022-07-26T20:40:19.631Z,1.70
2022-07-26T20:42:50.064Z,1.57
2022-07-26T20:45:18.887Z,1.67
2022-07-26T20:47:47.500Z,1.50
2022-07-26T20:50:17.780Z,1.50
2022-07-26T20:52:47.399Z,1.50
2022-07-26T20:55:18.939Z,1.20
2022-07-26T20:57:47.582Z,1.20
2022-07-26T21:00:17.728Z,1.40
2022-07-26T21:02:46.812Z,1.40
2022-07-26T21:05:15.606Z,1.27
2022-07-26T21:07:53.518Z,1.20
2022-07-26T21:10:29.297Z,1.30
2022-07-26T21:13:00.386Z,1.20
2022-07-26T21:15:29.218Z,1.10
2022-07-26T21:17:57.832Z,1.07
2022-07-26T21:20:26.404Z,1.20
2022-07-26T21:23:03.632Z,1.33
2022-07-26T21:25:43.188Z,1.17
2022-07-26T21:28:11.447Z,1.03
2022-07-26T21:30:40.356Z,1.13
2022-07-26T21:33:10.321Z,1.20
2022-07-26T21:35:38.810Z,1.17
2022-07-26T21:38:07.579Z,1.27
2022-07-26T21:40:36.130Z,1.20
2022-07-26T21:43:06.127Z,1.27
2022-07-26T21:45:34.756Z,1.13
2022-07-26T21:48:03.524Z,1.30
2022-07-26T21:50:33.015Z,1.43
2022-07-26T21:53:02.178Z,1.20
2022-07-26T21:55:30.711Z,1.27
2022-07-26T21:57:59.080Z,1.27
2022-07-26T22:00:28.937Z,1.27
2022-07-26T22:02:57.629Z,1.37
2022-07-26T22:05:42.702Z,1.37
2022-07-26T22:08:14.609Z,1.43
2022-07-26T22:10:45.493Z,1.20
2022-07-26T22:13:14.876Z,1.30
2022-07-26T22:15:44.930Z,1.60
2022-07-26T22:18:14.847Z,1.67
2022-07-26T22:20:47.662Z,1.37
2022-07-26T22:23:17.360Z,1.03
2022-07-26T22:25:46.217Z,1.40
2022-07-26T22:28:18.123Z,1.20
2022-07-26T22:30:48.432Z,1.30
2022-07-26T22:33:17.442Z,1.17
2022-07-26T22:35:45.862Z,1.30
2022-07-26T22:38:15.096Z,1.53
2022-07-26T22:40:44.659Z,1.50
2022-07-26T22:43:13.483Z,1.27
2022-07-26T22:45:42.392Z,1.63
2022-07-26T22:48:12.314Z,1.30
2022-07-26T22:50:40.649Z,1.60
2022-07-26T22:53:09.248Z,1.70
2022-07-26T22:55:37.790Z,1.80
2022-07-26T22:58:06.925Z,1.50
2022-07-26T23:00:35.889Z,1.50
2022-07-26T23:03:04.471Z,1.67
2022-07-26T23:05:46.357Z,1.53
2022-07-26T23:11:05.540Z,1.60
2022-07-26T23:13:33.870Z,1.50
2022-07-26T23:16:02.377Z,1.67
2022-07-26T23:18:32.745Z,1.40
2022-07-26T23:21:03.859Z,2.03
2022-07-26T23:23:33.343Z,2.00
2022-07-26T23:26:01.825Z,2.03
2022-07-26T23:28:36.963Z,1.57
2022-07-26T23:31:08.967Z,1.70
2022-07-26T23:33:52.366Z,1.80
2022-07-26T23:36:27.555Z,1.73
2022-07-26T23:38:56.653Z,1.93
2022-07-26T23:41:26.028Z,2.43
2022-07-26T23:43:55.302Z,1.50
2022-07-26T23:46:24.359Z,2.00
2022-07-26T23:48:53.460Z,1.63
2022-07-26T23:51:23.046Z,1.90
2022-07-26T23:53:53.446Z,1.53
2022-07-26T23:56:22.125Z,1.73
2022-07-26T23:58:50.730Z,1.43
